createdAt,value
2023-08-28T00:14:27.992Z,16.1
2023-08-28T00:29:27.929Z,16.5
2023-08-28T00:44:27.958Z,16.6
2023-08-28T00:59:27.887Z,16.1
2023-08-28T01:14:27.894Z,15.4
2023-08-28T01:29:27.830Z,15
2023-08-28T01:44:27.830Z,15.1
2023-08-28T01:59:27.775Z,15.2
2023-08-28T02:14:27.793Z,15.5
2023-08-28T02:29:27.755Z,15.7
2023-08-28T02:44:27.767Z,16
2023-08-28T02:59:27.709Z,16
2023-08-28T03:14:27.714Z,16.1
2023-08-28T03:29:27.657Z,16.2
2023-08-28T03:44:27.676Z,15.9
2023-08-28T03:59:27.624Z,15.4
2023-08-28T04:14:27.612Z,15.2
2023-08-28T04:29:27.578Z,15
2023-08-28T04:44:27.572Z,15
2023-08-28T04:59:27.518Z,14.9
2023-08-28T05:14:27.519Z,14.9
2023-08-28T05:29:27.521Z,14.8
2023-08-28T05:44:27.495Z,15
2023-08-28T05:59:27.430Z,15.2
2023-08-28T06:14:27.449Z,15.4
2023-08-28T06:29:27.396Z,15.4
2023-08-28T06:44:27.392Z,14.9
2023-08-28T06:59:27.354Z,14.4
2023-08-28T07:14:27.470Z,14.4
2023-08-28T07:29:27.314Z,14.5
2023-08-28T07:44:27.270Z,14.6
2023-08-28T07:59:27.244Z,14.5
2023-08-28T08:14:27.278Z,14.5
2023-08-28T08:29:27.233Z,14.2
2023-08-28T08:44:27.309Z,13.6
2023-08-28T08:59:27.219Z,13.6
2023-08-28T09:14:27.200Z,13.5
2023-08-28T09:29:27.143Z,13.3
2023-08-28T09:44:27.156Z,13.4
2023-08-28T09:59:27.144Z,13.7
2023-08-28T10:14:27.100Z,13.6
2023-08-28T10:29:27.086Z,13.6
2023-08-28T10:44:27.077Z,13.6
2023-08-28T10:59:27.112Z,13.5
2023-08-28T11:14:29.143Z,13.5
2023-08-28T11:29:26.988Z,13.7
2023-08-28T11:44:27.009Z,13.6
2023-08-28T11:59:26.929Z,13.9
2023-08-28T12:14:26.928Z,14.5
2023-08-28T12:29:26.902Z,14.7
2023-08-28T12:44:26.899Z,14.9
2023-08-28T12:59:26.824Z,14.8
2023-08-28T13:14:26.854Z,15.2
2023-08-28T13:29:26.814Z,15.1
2023-08-28T13:44:27.977Z,15
2023-08-28T13:59:26.765Z,15
2023-08-28T14:14:26.781Z,14.7
2023-08-28T14:29:26.721Z,14.1
2023-08-28T14:44:26.731Z,13.9
2023-08-28T14:59:26.648Z,13.7
2023-08-28T15:14:26.686Z,13.7
2023-08-28T15:29:26.616Z,14.1
2023-08-28T15:44:26.648Z,14.6
2023-08-28T15:59:26.628Z,14.9
2023-08-28T16:14:26.596Z,14.9
2023-08-28T16:29:26.543Z,14.5
2023-08-28T16:44:26.593Z,14.6
2023-08-28T16:59:26.498Z,14.7
2023-08-28T17:14:26.528Z,14.8
2023-08-28T17:29:26.459Z,14.8
2023-08-28T17:44:26.473Z,15.1
2023-08-28T17:59:26.427Z,15.1
2023-08-28T18:14:26.452Z,15.3
2023-08-28T18:29:26.381Z,15.3
2023-08-28T18:44:26.379Z,15.2
2023-08-28T18:59:26.299Z,15
2023-08-28T19:14:26.331Z,15
2023-08-28T19:29:26.370Z,14.8
2023-08-28T19:44:26.288Z,14.7
2023-08-28T19:59:26.223Z,14.8
2023-08-28T20:14:26.215Z,14.9
2023-08-28T20:29:26.186Z,15
2023-08-28T20:44:26.234Z,14.9
2023-08-28T20:59:26.139Z,15.1
2023-08-28T21:14:26.186Z,15.3
2023-08-28T21:29:26.118Z,15.3
2023-08-28T21:44:26.105Z,15.2
2023-08-28T21:59:26.047Z,15.2
2023-08-28T22:14:26.066Z,15.2
2023-08-28T22:29:26.029Z,15.1
2023-08-28T22:44:26.029Z,15.1
2023-08-28T22:59:25.961Z,15.2
2023-08-28T23:14:25.978Z,15.2
2023-08-28T23:29:25.921Z,15.1
2023-08-28T23:44:25.957Z,15
2023-08-28T23:59:25.848Z,15
